sensor_id;sensor_type;location;lat;lon;timestamp;temperature;humidity
8261;DHT22;64115;50.170;8.242;2022-11-15T00:00:42;8.60;99.90
8261;DHT22;64115;50.170;8.242;2022-11-15T00:03:09;8.70;99.90
8261;DHT22;64115;50.170;8.242;2022-11-15T00:05:37;8.70;99.90
8261;DHT22;64115;50.170;8.242;2022-11-15T00:08:04;8.70;99.90
8261;DHT22;64115;50.170;8.242;2022-11-15T00:10:31;8.70;99.90
8261;DHT22;64115;50.170;8.242;2022-11-15T00:13:03;8.70;99.90
8261;DHT22;64115;50.170;8.242;2022-11-15T00:15:30;8.60;99.90
8261;DHT22;64115;50.170;8.242;2022-11-15T00:17:57;8.60;99.90
8261;DHT22;64115;50.170;8.242;2022-11-15T00:20:24;8.70;99.90
8261;DHT22;64115;50.170;8.242;2022-11-15T00:22:52;8.70;99.90
8261;DHT22;64115;50.170;8.242;2022-11-15T00:25:18;8.80;99.90
8261;DHT22;64115;50.170;8.242;2022-11-15T00:27:46;8.70;99.90
8261;DHT22;64115;50.170;8.242;2022-11-15T00:30:12;8.70;99.90
8261;DHT22;64115;50.170;8.242;2022-11-15T00:32:39;8.70;99.90
8261;DHT22;64115;50.170;8.242;2022-11-15T00:35:07;8.70;99.90
8261;DHT22;64115;50.170;8.242;2022-11-15T00:37:33;8.60;99.90
8261;DHT22;64115;50.170;8.242;2022-11-15T00:40:02;8.70;99.90
8261;DHT22;64115;50.170;8.242;2022-11-15T00:42:29;8.50;99.90
8261;DHT22;64115;50.170;8.242;2022-11-15T00:44:55;8.60;99.90
8261;DHT22;64115;50.170;8.242;2022-11-15T00:47:22;8.50;99.90
8261;DHT22;64115;50.170;8.242;2022-11-15T00:49:49;8.60;99.90
8261;DHT22;64115;50.170;8.242;2022-11-15T00:52:16;8.60;99.90
8261;DHT22;64115;50.170;8.242;2022-11-15T00:54:43;8.70;99.90
8261;DHT22;64115;50.170;8.242;2022-11-15T00:57:11;8.80;99.90
8261;DHT22;64115;50.170;8.242;2022-11-15T00:59:38;8.90;99.90
8261;DHT22;64115;50.170;8.242;2022-11-15T01:02:05;8.90;99.90
8261;DHT22;64115;50.170;8.242;2022-11-15T01:04:31;9.00;99.90
8261;DHT22;64115;50.170;8.242;2022-11-15T01:06:58;9.10;99.90
8261;DHT22;64115;50.170;8.242;2022-11-15T01:09:25;9.10;99.90
8261;DHT22;64115;50.170;8.242;2022-11-15T01:11:52;9.10;99.90
8261;DHT22;64115;50.170;8.242;2022-11-15T01:14:21;9.20;99.90
8261;DHT22;64115;50.170;8.242;2022-11-15T01:16:48;9.20;99.90
8261;DHT22;64115;50.170;8.242;2022-11-15T01:19:15;9.20;99.90
8261;DHT22;64115;50.170;8.242;2022-11-15T01:21:41;9.20;99.90
8261;DHT22;64115;50.170;8.242;2022-11-15T01:24:12;9.30;99.90
8261;DHT22;64115;50.170;8.242;2022-11-15T01:26:39;9.30;99.90
8261;DHT22;64115;50.170;8.242;2022-11-15T01:29:06;9.30;99.90
8261;DHT22;64115;50.170;8.242;2022-11-15T01:31:34;9.30;99.90
8261;DHT22;64115;50.170;8.242;2022-11-15T01:34:01;9.30;99.90
8261;DHT22;64115;50.170;8.242;2022-11-15T01:36:27;9.30;99.90
8261;DHT22;64115;50.170;8.242;2022-11-15T01:38:55;9.30;99.90
8261;DHT22;64115;50.170;8.242;2022-11-15T01:41:24;9.30;99.90
8261;DHT22;64115;50.170;8.242;2022-11-15T01:43:53;9.30;99.90
8261;DHT22;64115;50.170;8.242;2022-11-15T01:46:27;9.30;99.90
8261;DHT22;64115;50.170;8.242;2022-11-15T01:49:00;9.30;99.90
8261;DHT22;64115;50.170;8.242;2022-11-15T01:51:30;9.30;99.90
8261;DHT22;64115;50.170;8.242;2022-11-15T01:54:02;9.30;99.90
8261;DHT22;64115;50.170;8.242;2022-11-15T01:56:33;9.30;99.90
8261;DHT22;64115;50.170;8.242;2022-11-15T01:59:04;9.20;99.90
8261;DHT22;64115;50.170;8.242;2022-11-15T02:01:33;9.30;99.90
8261;DHT22;64115;50.170;8.242;2022-11-15T02:04:05;9.30;99.90
8261;DHT22;64115;50.170;8.242;2022-11-15T02:06:35;9.30;99.90
8261;DHT22;64115;50.170;8.242;2022-11-15T02:09:02;9.30;99.90
8261;DHT22;64115;50.170;8.242;2022-11-15T02:11:29;9.30;99.90
8261;DHT22;64115;50.170;8.242;2022-11-15T02:13:58;9.40;99.90
8261;DHT22;64115;50.170;8.242;2022-11-15T02:16:31;9.30;99.90
8261;DHT22;64115;50.170;8.242;2022-11-15T02:19:27;9.30;99.90
8261;DHT22;64115;50.170;8.242;2022-11-15T02:22:04;9.30;99.90
8261;DHT22;64115;50.170;8.242;2022-11-15T02:25:01;9.30;99.90
8261;DHT22;64115;50.170;8.242;2022-11-15T02:27:49;9.20;99.90
8261;DHT22;64115;50.170;8.242;2022-11-15T02:30:33;9.20;99.90
8261;DHT22;64115;50.170;8.242;2022-11-15T02:33:06;9.10;99.90
8261;DHT22;64115;50.170;8.242;2022-11-15T02:35:43;9.10;99.90
8261;DHT22;64115;50.170;8.242;2022-11-15T02:38:17;9.10;99.90
8261;DHT22;64115;50.170;8.242;2022-11-15T02:40:49;9.10;99.90
8261;DHT22;64115;50.170;8.242;2022-11-15T02:43:22;9.00;99.90
8261;DHT22;64115;50.170;8.242;2022-11-15T02:46:15;9.00;99.90
8261;DHT22;64115;50.170;8.242;2022-11-15T02:48:44;9.00;99.90
8261;DHT22;64115;50.170;8.242;2022-11-15T02:51:13;9.10;99.90
8261;DHT22;64115;50.170;8.242;2022-11-15T02:53:40;9.10;99.90
8261;DHT22;64115;50.170;8.242;2022-11-15T02:56:09;9.10;99.90
8261;DHT22;64115;50.170;8.242;2022-11-15T02:58:57;9.20;99.90
8261;DHT22;64115;50.170;8.242;2022-11-15T03:01:38;9.20;99.90
8261;DHT22;64115;50.170;8.242;2022-11-15T03:04:16;9.30;99.90
8261;DHT22;64115;50.170;8.242;2022-11-15T03:06:49;9.30;99.90
8261;DHT22;64115;50.170;8.242;2022-11-15T03:09:27;9.30;99.90
8261;DHT22;64115;50.170;8.242;2022-11-15T03:12:01;9.30;99.90
8261;DHT22;64115;50.170;8.242;2022-11-15T03:14:32;9.30;99.90
8261;DHT22;64115;50.170;8.242;2022-11-15T03:17:07;9.20;99.90
8261;DHT22;64115;50.170;8.242;2022-11-15T03:19:42;9.30;99.90
8261;DHT22;64115;50.170;8.242;2022-11-15T03:22:13;9.30;99.90
8261;DHT22;64115;50.170;8.242;2022-11-15T03:24:44;9.30;99.90
8261;DHT22;64115;50.170;8.242;2022-11-15T03:27:13;9.30;99.90
8261;DHT22;64115;50.170;8.242;2022-11-15T03:29:44;9.30;99.90
8261;DHT22;64115;50.170;8.242;2022-11-15T03:32:16;9.30;99.90
8261;DHT22;64115;50.170;8.242;2022-11-15T03:34:49;9.20;99.90
8261;DHT22;64115;50.170;8.242;2022-11-15T03:37:18;9.10;99.90
8261;DHT22;64115;50.170;8.242;2022-11-15T03:39:47;9.10;99.90
8261;DHT22;64115;50.170;8.242;2022-11-15T03:42:20;9.00;99.90
8261;DHT22;64115;50.170;8.242;2022-11-15T03:44:54;8.90;99.90
8261;DHT22;64115;50.170;8.242;2022-11-15T03:47:29;8.80;99.90
8261;DHT22;64115;50.170;8.242;2022-11-15T03:49:59;8.80;99.90
8261;DHT22;64115;50.170;8.242;2022-11-15T03:52:31;8.80;99.90
8261;DHT22;64115;50.170;8.242;2022-11-15T03:55:00;8.80;99.90
8261;DHT22;64115;50.170;8.242;2022-11-15T03:57:28;8.90;99.90
8261;DHT22;64115;50.170;8.242;2022-11-15T03:59:55;8.90;99.90
8261;DHT22;64115;50.170;8.242;2022-11-15T04:02:22;8.80;99.90
8261;DHT22;64115;50.170;8.242;2022-11-15T04:04:50;8.80;99.90
8261;DHT22;64115;50.170;8.242;2022-11-15T04:07:17;8.80;99.90
8261;DHT22;64115;50.170;8.242;2022-11-15T04:09:44;8.80;99.90
8261;DHT22;64115;50.170;8.242;2022-11-15T04:12:29;8.80;99.90
8261;DHT22;64115;50.170;8.242;2022-11-15T04:15:00;8.90;99.90
8261;DHT22;64115;50.170;8.242;2022-11-15T04:17:34;8.90;99.90
8261;DHT22;64115;50.170;8.242;2022-11-15T04:20:03;8.80;99.90
8261;DHT22;64115;50.170;8.242;2022-11-15T04:22:48;8.70;99.90
8261;DHT22;64115;50.170;8.242;2022-11-15T04:25:33;8.70;99.90
8261;DHT22;64115;50.170;8.242;2022-11-15T04:28:00;8.70;99.90
8261;DHT22;64115;50.170;8.242;2022-11-15T04:30:26;8.70;99.90
8261;DHT22;64115;50.170;8.242;2022-11-15T04:32:53;8.70;99.90
8261;DHT22;64115;50.170;8.242;2022-11-15T04:35:21;8.70;99.90
8261;DHT22;64115;50.170;8.242;2022-11-15T04:37:48;8.70;99.90
8261;DHT22;64115;50.170;8.242;2022-11-15T04:40:15;8.80;99.90
8261;DHT22;64115;50.170;8.242;2022-11-15T04:42:42;8.70;99.90
8261;DHT22;64115;50.170;8.242;2022-11-15T04:45:09;8.80;99.90
8261;DHT22;64115;50.170;8.242;2022-11-15T04:47:36;8.80;99.90
8261;DHT22;64115;50.170;8.242;2022-11-15T04:50:03;8.80;99.90
8261;DHT22;64115;50.170;8.242;2022-11-15T04:52:32;8.90;99.90
8261;DHT22;64115;50.170;8.242;2022-11-15T04:54:59;8.90;99.90
8261;DHT22;64115;50.170;8.242;2022-11-15T04:57:25;8.90;99.90
8261;DHT22;64115;50.170;8.242;2022-11-15T04:59:52;8.90;99.90
8261;DHT22;64115;50.170;8.242;2022-11-15T05:02:19;8.80;99.90
8261;DHT22;64115;50.170;8.242;2022-11-15T05:04:46;8.80;99.90
8261;DHT22;64115;50.170;8.242;2022-11-15T05:07:12;8.80;99.90
8261;DHT22;64115;50.170;8.242;2022-11-15T05:09:40;8.90;99.90
8261;DHT22;64115;50.170;8.242;2022-11-15T05:12:06;8.90;99.90
8261;DHT22;64115;50.170;8.242;2022-11-15T05:14:36;9.00;99.90
8261;DHT22;64115;50.170;8.242;2022-11-15T05:17:03;8.90;99.90
8261;DHT22;64115;50.170;8.242;2022-11-15T05:19:29;8.90;99.90
8261;DHT22;64115;50.170;8.242;2022-11-15T05:21:56;8.90;99.90
8261;DHT22;64115;50.170;8.242;2022-11-15T05:24:23;9.00;99.90
8261;DHT22;64115;50.170;8.242;2022-11-15T05:26:51;9.00;99.90
8261;DHT22;64115;50.170;8.242;2022-11-15T05:29:18;9.00;99.90
8261;DHT22;64115;50.170;8.242;2022-11-15T06:09:27;9.00;99.90
8261;DHT22;64115;50.170;8.242;2022-11-15T06:11:54;9.20;99.90
8261;DHT22;64115;50.170;8.242;2022-11-15T06:14:20;9.20;99.90
8261;DHT22;64115;50.170;8.242;2022-11-15T06:16:47;9.20;99.90
8261;DHT22;64115;50.170;8.242;2022-11-15T06:19:14;9.20;99.90
8261;DHT22;64115;50.170;8.242;2022-11-15T06:21:41;9.10;99.90
8261;DHT22;64115;50.170;8.242;2022-11-15T06:24:08;9.10;99.90
8261;DHT22;64115;50.170;8.242;2022-11-15T06:26:36;9.00;99.90
8261;DHT22;64115;50.170;8.242;2022-11-15T06:29:03;9.00;99.90
8261;DHT22;64115;50.170;8.242;2022-11-15T06:31:30;9.00;99.90
8261;DHT22;64115;50.170;8.242;2022-11-15T06:33:57;9.00;99.90
8261;DHT22;64115;50.170;8.242;2022-11-15T06:36:24;9.00;99.90
8261;DHT22;64115;50.170;8.242;2022-11-15T06:38:51;9.00;99.90
8261;DHT22;64115;50.170;8.242;2022-11-15T06:41:17;9.00;99.90
8261;DHT22;64115;50.170;8.242;2022-11-15T06:43:47;8.90;99.90
8261;DHT22;64115;50.170;8.242;2022-11-15T06:46:14;8.80;99.90
8261;DHT22;64115;50.170;8.242;2022-11-15T06:48:41;8.80;99.90
8261;DHT22;64115;50.170;8.242;2022-11-15T06:51:08;8.90;99.90
8261;DHT22;64115;50.170;8.242;2022-11-15T06:53:34;9.00;99.90
8261;DHT22;64115;50.170;8.242;2022-11-15T06:56:03;8.90;99.90
8261;DHT22;64115;50.170;8.242;2022-11-15T06:58:30;9.00;99.90
8261;DHT22;64115;50.170;8.242;2022-11-15T07:01:04;9.00;99.90
8261;DHT22;64115;50.170;8.242;2022-11-15T07:03:31;9.10;99.90
8261;DHT22;64115;50.170;8.242;2022-11-15T07:05:58;9.00;99.90
8261;DHT22;64115;50.170;8.242;2022-11-15T07:08:27;9.00;99.90
8261;DHT22;64115;50.170;8.242;2022-11-15T07:10:54;9.10;99.90
8261;DHT22;64115;50.170;8.242;2022-11-15T07:13:24;9.10;99.90
8261;DHT22;64115;50.170;8.242;2022-11-15T07:15:51;9.10;99.90
8261;DHT22;64115;50.170;8.242;2022-11-15T07:18:19;9.10;99.90
8261;DHT22;64115;50.170;8.242;2022-11-15T07:20:47;9.10;99.90
8261;DHT22;64115;50.170;8.242;2022-11-15T07:23:13;9.10;99.90
8261;DHT22;64115;50.170;8.242;2022-11-15T07:25:40;9.10;99.90
8261;DHT22;64115;50.170;8.242;2022-11-15T07:28:07;9.20;99.90
8261;DHT22;64115;50.170;8.242;2022-11-15T07:30:34;9.20;99.90
8261;DHT22;64115;50.170;8.242;2022-11-15T07:33:01;9.20;99.90
8261;DHT22;64115;50.170;8.242;2022-11-15T07:35:30;9.20;99.90
8261;DHT22;64115;50.170;8.242;2022-11-15T07:37:58;9.20;99.90
8261;DHT22;64115;50.170;8.242;2022-11-15T08:10:51;9.80;99.90
8261;DHT22;64115;50.170;8.242;2022-11-15T08:13:18;9.80;99.90
8261;DHT22;64115;50.170;8.242;2022-11-15T08:15:45;9.80;99.90
8261;DHT22;64115;50.170;8.242;2022-11-15T08:18:14;9.80;99.90
8261;DHT22;64115;50.170;8.242;2022-11-15T08:20:41;9.80;99.90
8261;DHT22;64115;50.170;8.242;2022-11-15T08:23:10;9.70;99.90
8261;DHT22;64115;50.170;8.242;2022-11-15T08:25:37;9.70;99.90
8261;DHT22;64115;50.170;8.242;2022-11-15T08:28:07;9.70;99.90
8261;DHT22;64115;50.170;8.242;2022-11-15T08:30:36;9.80;99.90
8261;DHT22;64115;50.170;8.242;2022-11-15T08:33:03;9.80;99.90
8261;DHT22;64115;50.170;8.242;2022-11-15T08:35:30;9.80;99.90
8261;DHT22;64115;50.170;8.242;2022-11-15T08:37:57;9.80;99.90
8261;DHT22;64115;50.170;8.242;2022-11-15T08:40:24;9.80;99.90
8261;DHT22;64115;50.170;8.242;2022-11-15T08:42:52;9.70;99.90
8261;DHT22;64115;50.170;8.242;2022-11-15T08:45:20;9.80;99.90
8261;DHT22;64115;50.170;8.242;2022-11-15T08:47:47;9.80;99.90
8261;DHT22;64115;50.170;8.242;2022-11-15T08:50:15;9.90;99.90
8261;DHT22;64115;50.170;8.242;2022-11-15T09:09:46;10.20;99.90
8261;DHT22;64115;50.170;8.242;2022-11-15T09:12:13;10.20;99.90
8261;DHT22;64115;50.170;8.242;2022-11-15T09:14:40;10.20;99.90
8261;DHT22;64115;50.170;8.242;2022-11-15T09:17:08;10.20;99.90
8261;DHT22;64115;50.170;8.242;2022-11-15T09:19:35;10.30;99.90
8261;DHT22;64115;50.170;8.242;2022-11-15T09:22:05;10.30;99.90
8261;DHT22;64115;50.170;8.242;2022-11-15T09:24:32;10.40;99.90
8261;DHT22;64115;50.170;8.242;2022-11-15T09:27:00;10.50;99.90
8261;DHT22;64115;50.170;8.242;2022-11-15T09:29:27;10.50;99.90
8261;DHT22;64115;50.170;8.242;2022-11-15T09:31:54;10.60;99.90
8261;DHT22;64115;50.170;8.242;2022-11-15T09:34:21;10.70;99.90
8261;DHT22;64115;50.170;8.242;2022-11-15T09:36:48;10.70;99.90
8261;DHT22;64115;50.170;8.242;2022-11-15T09:39:15;10.70;99.90
8261;DHT22;64115;50.170;8.242;2022-11-15T09:41:56;10.60;99.90
8261;DHT22;64115;50.170;8.242;2022-11-15T09:44:45;10.70;99.90
8261;DHT22;64115;50.170;8.242;2022-11-15T09:48:00;10.80;99.90
8261;DHT22;64115;50.170;8.242;2022-11-15T09:50:36;10.70;99.90
8261;DHT22;64115;50.170;8.242;2022-11-15T09:53:03;10.70;99.90
8261;DHT22;64115;50.170;8.242;2022-11-15T09:55:36;10.70;99.90
8261;DHT22;64115;50.170;8.242;2022-11-15T09:58:10;10.70;99.90
8261;DHT22;64115;50.170;8.242;2022-11-15T10:00:46;10.70;99.90
8261;DHT22;64115;50.170;8.242;2022-11-15T10:03:23;10.80;99.90
8261;DHT22;64115;50.170;8.242;2022-11-15T10:05:53;10.80;99.90
8261;DHT22;64115;50.170;8.242;2022-11-15T10:08:45;10.90;99.90
8261;DHT22;64115;50.170;8.242;2022-11-15T10:11:17;10.90;99.90
8261;DHT22;64115;50.170;8.242;2022-11-15T10:13:47;11.00;99.90
8261;DHT22;64115;50.170;8.242;2022-11-15T10:19:21;11.00;99.90
8261;DHT22;64115;50.170;8.242;2022-11-15T11:10:20;11.40;99.90
8261;DHT22;64115;50.170;8.242;2022-11-15T11:12:47;11.40;99.90
8261;DHT22;64115;50.170;8.242;2022-11-15T11:15:16;11.00;99.90
8261;DHT22;64115;50.170;8.242;2022-11-15T11:17:55;11.00;99.90
8261;DHT22;64115;50.170;8.242;2022-11-15T11:20:28;11.00;99.90
8261;DHT22;64115;50.170;8.242;2022-11-15T11:23:08;10.90;99.90
8261;DHT22;64115;50.170;8.242;2022-11-15T11:25:43;11.00;99.90
8261;DHT22;64115;50.170;8.242;2022-11-15T11:28:29;11.00;99.90
8261;DHT22;64115;50.170;8.242;2022-11-15T11:33:56;11.10;99.90
8261;DHT22;64115;50.170;8.242;2022-11-15T11:36:34;11.00;99.90
8261;DHT22;64115;50.170;8.242;2022-11-15T11:39:17;11.00;99.90
8261;DHT22;64115;50.170;8.242;2022-11-15T11:42:03;11.00;99.90
8261;DHT22;64115;50.170;8.242;2022-11-15T11:44:36;11.00;99.90
8261;DHT22;64115;50.170;8.242;2022-11-15T11:47:09;10.90;99.90
8261;DHT22;64115;50.170;8.242;2022-11-15T11:49:41;10.80;99.90
8261;DHT22;64115;50.170;8.242;2022-11-15T11:52:14;10.80;99.90
8261;DHT22;64115;50.170;8.242;2022-11-15T11:54:50;10.90;99.90
8261;DHT22;64115;50.170;8.242;2022-11-15T11:57:28;10.70;99.90
8261;DHT22;64115;50.170;8.242;2022-11-15T12:00:00;10.60;99.90
8261;DHT22;64115;50.170;8.242;2022-11-15T12:02:32;10.60;99.90
8261;DHT22;64115;50.170;8.242;2022-11-15T12:05:07;10.60;99.90
8261;DHT22;64115;50.170;8.242;2022-11-15T12:07:38;10.50;99.90
8261;DHT22;64115;50.170;8.242;2022-11-15T12:10:18;10.40;99.90
8261;DHT22;64115;50.170;8.242;2022-11-15T12:12:52;10.40;99.90
8261;DHT22;64115;50.170;8.242;2022-11-15T12:15:24;10.30;99.90
8261;DHT22;64115;50.170;8.242;2022-11-15T12:17:54;10.20;99.90
8261;DHT22;64115;50.170;8.242;2022-11-15T12:20:23;10.30;99.90
8261;DHT22;64115;50.170;8.242;2022-11-15T12:22:54;10.40;99.90
8261;DHT22;64115;50.170;8.242;2022-11-15T12:25:28;10.40;99.90
8261;DHT22;64115;50.170;8.242;2022-11-15T12:28:01;10.30;99.90
8261;DHT22;64115;50.170;8.242;2022-11-15T12:30:41;10.40;99.90
8261;DHT22;64115;50.170;8.242;2022-11-15T12:33:32;10.40;99.90
8261;DHT22;64115;50.170;8.242;2022-11-15T12:36:03;10.30;99.90
8261;DHT22;64115;50.170;8.242;2022-11-15T12:38:49;10.30;99.90
8261;DHT22;64115;50.170;8.242;2022-11-15T12:41:18;10.40;99.90
8261;DHT22;64115;50.170;8.242;2022-11-15T12:43:47;10.40;99.90
8261;DHT22;64115;50.170;8.242;2022-11-15T12:46:58;10.40;99.90
8261;DHT22;64115;50.170;8.242;2022-11-15T12:49:44;10.40;99.90
8261;DHT22;64115;50.170;8.242;2022-11-15T12:52:11;10.30;99.90
8261;DHT22;64115;50.170;8.242;2022-11-15T12:57:50;10.40;99.90
8261;DHT22;64115;50.170;8.242;2022-11-15T13:00:38;10.30;99.90
8261;DHT22;64115;50.170;8.242;2022-11-15T13:03:25;10.40;99.90
8261;DHT22;64115;50.170;8.242;2022-11-15T13:06:04;10.40;99.90
8261;DHT22;64115;50.170;8.242;2022-11-15T13:08:46;10.40;99.90
8261;DHT22;64115;50.170;8.242;2022-11-15T13:11:51;10.40;99.90
8261;DHT22;64115;50.170;8.242;2022-11-15T13:14:41;10.40;99.90
8261;DHT22;64115;50.170;8.242;2022-11-15T13:17:31;10.30;99.90
8261;DHT22;64115;50.170;8.242;2022-11-15T13:22:48;10.30;99.90
8261;DHT22;64115;50.170;8.242;2022-11-15T13:25:33;10.40;99.90
8261;DHT22;64115;50.170;8.242;2022-11-15T13:28:17;10.30;99.90
8261;DHT22;64115;50.170;8.242;2022-11-15T13:30:50;10.40;99.90
8261;DHT22;64115;50.170;8.242;2022-11-15T13:33:21;10.40;99.90
8261;DHT22;64115;50.170;8.242;2022-11-15T13:35:51;10.40;99.90
8261;DHT22;64115;50.170;8.242;2022-11-15T13:38:28;10.30;99.90
8261;DHT22;64115;50.170;8.242;2022-11-15T13:40:55;10.40;99.90
8261;DHT22;64115;50.170;8.242;2022-11-15T13:43:32;10.40;99.90
8261;DHT22;64115;50.170;8.242;2022-11-15T13:46:10;10.50;99.90
8261;DHT22;64115;50.170;8.242;2022-11-15T13:48:40;10.40;99.90
8261;DHT22;64115;50.170;8.242;2022-11-15T13:51:13;10.20;99.90
8261;DHT22;64115;50.170;8.242;2022-11-15T13:53:45;10.10;99.90
8261;DHT22;64115;50.170;8.242;2022-11-15T13:56:14;10.20;99.90
8261;DHT22;64115;50.170;8.242;2022-11-15T13:58:42;10.10;99.90
8261;DHT22;64115;50.170;8.242;2022-11-15T14:01:15;10.10;99.90
8261;DHT22;64115;50.170;8.242;2022-11-15T14:03:54;10.00;99.90
8261;DHT22;64115;50.170;8.242;2022-11-15T14:06:24;9.90;99.90
8261;DHT22;64115;50.170;8.242;2022-11-15T14:09:00;9.80;99.90
8261;DHT22;64115;50.170;8.242;2022-11-15T14:11:28;9.80;99.90
8261;DHT22;64115;50.170;8.242;2022-11-15T14:14:04;9.80;99.90
8261;DHT22;64115;50.170;8.242;2022-11-15T14:16:35;9.70;99.90
8261;DHT22;64115;50.170;8.242;2022-11-15T14:19:04;9.70;99.90
8261;DHT22;64115;50.170;8.242;2022-11-15T14:21:32;9.70;99.90
8261;DHT22;64115;50.170;8.242;2022-11-15T14:24:14;9.60;99.90
8261;DHT22;64115;50.170;8.242;2022-11-15T14:26:41;9.60;99.90
8261;DHT22;64115;50.170;8.242;2022-11-15T14:29:24;9.50;99.90
8261;DHT22;64115;50.170;8.242;2022-11-15T14:31:51;9.50;99.90
8261;DHT22;64115;50.170;8.242;2022-11-15T14:34:20;9.50;99.90
8261;DHT22;64115;50.170;8.242;2022-11-15T14:36:47;9.50;99.90
8261;DHT22;64115;50.170;8.242;2022-11-15T14:39:14;9.50;99.90
8261;DHT22;64115;50.170;8.242;2022-11-15T14:41:41;9.50;99.90
8261;DHT22;64115;50.170;8.242;2022-11-15T14:44:10;9.60;99.90
8261;DHT22;64115;50.170;8.242;2022-11-15T14:46:37;9.60;99.90
8261;DHT22;64115;50.170;8.242;2022-11-15T14:49:04;9.50;99.90
8261;DHT22;64115;50.170;8.242;2022-11-15T14:51:32;9.50;99.90
8261;DHT22;64115;50.170;8.242;2022-11-15T14:54:00;9.60;99.90
8261;DHT22;64115;50.170;8.242;2022-11-15T14:56:26;9.60;99.90
8261;DHT22;64115;50.170;8.242;2022-11-15T14:58:53;9.60;99.90
8261;DHT22;64115;50.170;8.242;2022-11-15T15:01:23;9.50;99.90
8261;DHT22;64115;50.170;8.242;2022-11-15T15:03:51;9.50;99.90
8261;DHT22;64115;50.170;8.242;2022-11-15T15:06:19;9.50;99.90
8261;DHT22;64115;50.170;8.242;2022-11-15T15:08:47;9.60;99.90
8261;DHT22;64115;50.170;8.242;2022-11-15T15:11:19;9.60;99.90
8261;DHT22;64115;50.170;8.242;2022-11-15T15:13:47;9.60;99.90
8261;DHT22;64115;50.170;8.242;2022-11-15T15:16:14;9.60;99.90
8261;DHT22;64115;50.170;8.242;2022-11-15T15:18:40;9.60;99.90
8261;DHT22;64115;50.170;8.242;2022-11-15T15:21:17;9.60;99.90
8261;DHT22;64115;50.170;8.242;2022-11-15T15:23:46;9.50;99.90
8261;DHT22;64115;50.170;8.242;2022-11-15T15:26:13;9.50;99.90
8261;DHT22;64115;50.170;8.242;2022-11-15T15:28:40;9.50;99.90
8261;DHT22;64115;50.170;8.242;2022-11-15T15:31:08;9.50;99.90
8261;DHT22;64115;50.170;8.242;2022-11-15T15:33:35;9.50;99.90
8261;DHT22;64115;50.170;8.242;2022-11-15T15:36:02;9.50;99.90
8261;DHT22;64115;50.170;8.242;2022-11-15T15:38:29;9.50;99.90
8261;DHT22;64115;50.170;8.242;2022-11-15T15:40:57;9.50;99.90
8261;DHT22;64115;50.170;8.242;2022-11-15T15:43:27;9.50;99.90
8261;DHT22;64115;50.170;8.242;2022-11-15T15:45:56;9.50;99.90
8261;DHT22;64115;50.170;8.242;2022-11-15T15:48:24;9.50;99.90
8261;DHT22;64115;50.170;8.242;2022-11-15T15:50:51;9.60;99.90
8261;DHT22;64115;50.170;8.242;2022-11-15T15:53:17;9.60;99.90
8261;DHT22;64115;50.170;8.242;2022-11-15T15:55:44;9.50;99.90
8261;DHT22;64115;50.170;8.242;2022-11-15T15:58:12;9.50;99.90
8261;DHT22;64115;50.170;8.242;2022-11-15T16:00:41;9.50;99.90
8261;DHT22;64115;50.170;8.242;2022-11-15T16:03:11;9.50;99.90
8261;DHT22;64115;50.170;8.242;2022-11-15T16:05:38;9.50;99.90
8261;DHT22;64115;50.170;8.242;2022-11-15T16:08:05;9.50;99.90
8261;DHT22;64115;50.170;8.242;2022-11-15T16:10:32;9.60;99.90
8261;DHT22;64115;50.170;8.242;2022-11-15T16:13:02;9.60;99.90
8261;DHT22;64115;50.170;8.242;2022-11-15T16:15:32;9.50;99.90
8261;DHT22;64115;50.170;8.242;2022-11-15T16:18:00;9.60;99.90
8261;DHT22;64115;50.170;8.242;2022-11-15T16:20:33;9.50;99.90
8261;DHT22;64115;50.170;8.242;2022-11-15T16:23:01;9.50;99.90
8261;DHT22;64115;50.170;8.242;2022-11-15T16:25:28;9.60;99.90
8261;DHT22;64115;50.170;8.242;2022-11-15T16:27:55;9.50;99.90
8261;DHT22;64115;50.170;8.242;2022-11-15T16:30:24;9.60;99.90
8261;DHT22;64115;50.170;8.242;2022-11-15T16:32:53;9.60;99.90
8261;DHT22;64115;50.170;8.242;2022-11-15T16:35:19;9.60;99.90
8261;DHT22;64115;50.170;8.242;2022-11-15T16:37:46;9.60;99.90
8261;DHT22;64115;50.170;8.242;2022-11-15T16:40:26;9.60;99.90
8261;DHT22;64115;50.170;8.242;2022-11-15T16:42:56;9.60;99.90
8261;DHT22;64115;50.170;8.242;2022-11-15T16:45:24;9.70;99.90
8261;DHT22;64115;50.170;8.242;2022-11-15T16:47:57;9.70;99.90
8261;DHT22;64115;50.170;8.242;2022-11-15T16:50:26;9.70;99.90
8261;DHT22;64115;50.170;8.242;2022-11-15T16:52:54;9.70;99.90
8261;DHT22;64115;50.170;8.242;2022-11-15T16:55:23;9.70;99.90
8261;DHT22;64115;50.170;8.242;2022-11-15T16:57:51;9.60;99.90
8261;DHT22;64115;50.170;8.242;2022-11-15T17:00:18;9.70;99.90
8261;DHT22;64115;50.170;8.242;2022-11-15T17:02:48;9.70;99.90
8261;DHT22;64115;50.170;8.242;2022-11-15T17:05:17;9.70;99.90
8261;DHT22;64115;50.170;8.242;2022-11-15T17:07:46;9.70;99.90
8261;DHT22;64115;50.170;8.242;2022-11-15T17:10:15;9.70;99.90
8261;DHT22;64115;50.170;8.242;2022-11-15T17:12:45;9.70;99.90
8261;DHT22;64115;50.170;8.242;2022-11-15T18:10:08;9.70;99.90
8261;DHT22;64115;50.170;8.242;2022-11-15T18:12:34;9.70;99.90
8261;DHT22;64115;50.170;8.242;2022-11-15T18:15:01;9.70;99.90
8261;DHT22;64115;50.170;8.242;2022-11-15T18:17:28;9.70;99.90
8261;DHT22;64115;50.170;8.242;2022-11-15T18:19:55;9.70;99.90
8261;DHT22;64115;50.170;8.242;2022-11-15T18:22:25;9.70;99.90
8261;DHT22;64115;50.170;8.242;2022-11-15T18:24:54;9.70;99.90
8261;DHT22;64115;50.170;8.242;2022-11-15T18:27:26;9.60;99.90
8261;DHT22;64115;50.170;8.242;2022-11-15T18:29:52;9.70;99.90
8261;DHT22;64115;50.170;8.242;2022-11-15T18:32:19;9.70;99.90
8261;DHT22;64115;50.170;8.242;2022-11-15T18:34:46;9.70;99.90
8261;DHT22;64115;50.170;8.242;2022-11-15T18:37:15;9.80;99.90
8261;DHT22;64115;50.170;8.242;2022-11-15T18:39:42;9.80;99.90
8261;DHT22;64115;50.170;8.242;2022-11-15T18:42:11;9.80;99.90
8261;DHT22;64115;50.170;8.242;2022-11-15T18:44:39;9.80;99.90
8261;DHT22;64115;50.170;8.242;2022-11-15T18:47:06;9.80;99.90
8261;DHT22;64115;50.170;8.242;2022-11-15T18:49:33;9.80;99.90
8261;DHT22;64115;50.170;8.242;2022-11-15T18:52:00;9.80;99.90
8261;DHT22;64115;50.170;8.242;2022-11-15T18:54:27;9.80;99.90
8261;DHT22;64115;50.170;8.242;2022-11-15T18:56:53;9.80;99.90
8261;DHT22;64115;50.170;8.242;2022-11-15T18:59:22;9.70;99.90
8261;DHT22;64115;50.170;8.242;2022-11-15T19:01:53;9.70;99.90
8261;DHT22;64115;50.170;8.242;2022-11-15T19:04:21;9.70;99.90
8261;DHT22;64115;50.170;8.242;2022-11-15T19:06:49;9.70;99.90
8261;DHT22;64115;50.170;8.242;2022-11-15T19:09:18;9.70;99.90
8261;DHT22;64115;50.170;8.242;2022-11-15T19:11:47;9.70;99.90
8261;DHT22;64115;50.170;8.242;2022-11-15T19:14:16;9.70;99.90
8261;DHT22;64115;50.170;8.242;2022-11-15T19:16:44;9.80;99.90
8261;DHT22;64115;50.170;8.242;2022-11-15T19:19:17;9.80;99.90
8261;DHT22;64115;50.170;8.242;2022-11-15T19:21:44;9.80;99.90
8261;DHT22;64115;50.170;8.242;2022-11-15T19:24:11;9.80;99.90
8261;DHT22;64115;50.170;8.242;2022-11-15T19:26:39;9.80;99.90
8261;DHT22;64115;50.170;8.242;2022-11-15T19:29:07;9.80;99.90
8261;DHT22;64115;50.170;8.242;2022-11-15T19:31:35;9.80;99.90
8261;DHT22;64115;50.170;8.242;2022-11-15T19:34:04;9.80;99.90
8261;DHT22;64115;50.170;8.242;2022-11-15T19:36:33;9.80;99.90
8261;DHT22;64115;50.170;8.242;2022-11-15T19:39:02;9.80;99.90